sensor_id;sensor_type;location;lat;lon;timestamp;P1;durP1;ratioP1;P2;durP2;ratioP2
72060;SDS011;59925;52.136;5.420;2022-09-23T00:00:56;7.40;;;4.13;;
72060;SDS011;59925;52.136;5.420;2022-09-23T00:03:24;6.43;;;4.45;;
72060;SDS011;59925;52.136;5.420;2022-09-23T00:06:26;6.72;;;3.63;;
72060;SDS011;59925;52.136;5.420;2022-09-23T00:08:47;7.50;;;3.60;;
72060;SDS011;59925;52.136;5.420;2022-09-23T00:11:18;7.03;;;4.07;;
72060;SDS011;59925;52.136;5.420;2022-09-23T00:13:47;7.37;;;4.37;;
72060;SDS011;59925;52.136;5.420;2022-09-23T00:16:17;7.22;;;3.78;;
72060;SDS011;59925;52.136;5.420;2022-09-23T00:18:46;5.53;;;3.38;;
72060;SDS011;59925;52.136;5.420;2022-09-23T00:21:14;7.30;;;3.55;;
72060;SDS011;59925;52.136;5.420;2022-09-23T00:23:41;6.03;;;3.80;;
72060;SDS011;59925;52.136;5.420;2022-09-23T00:26:09;4.90;;;2.97;;
72060;SDS011;59925;52.136;5.420;2022-09-23T00:28:37;5.47;;;3.40;;
72060;SDS011;59925;52.136;5.420;2022-09-23T00:31:04;6.63;;;3.55;;
72060;SDS011;59925;52.136;5.420;2022-09-23T00:33:35;6.63;;;3.47;;
72060;SDS011;59925;52.136;5.420;2022-09-23T00:36:05;5.07;;;3.30;;
72060;SDS011;59925;52.136;5.420;2022-09-23T00:38:34;5.50;;;3.43;;
72060;SDS011;59925;52.136;5.420;2022-09-23T00:41:01;5.53;;;3.90;;
72060;SDS011;59925;52.136;5.420;2022-09-23T00:43:38;6.65;;;3.85;;
72060;SDS011;59925;52.136;5.420;2022-09-23T00:49:02;7.82;;;3.95;;
72060;SDS011;59925;52.136;5.420;2022-09-23T00:51:32;5.43;;;3.67;;
72060;SDS011;59925;52.136;5.420;2022-09-23T00:54:03;4.50;;;3.38;;
72060;SDS011;59925;52.136;5.420;2022-09-23T00:56:31;5.80;;;3.60;;
72060;SDS011;59925;52.136;5.420;2022-09-23T00:58:59;4.93;;;3.67;;
72060;SDS011;59925;52.136;5.420;2022-09-23T01:01:26;5.88;;;3.63;;
72060;SDS011;59925;52.136;5.420;2022-09-23T01:03:53;6.90;;;3.97;;
72060;SDS011;59925;52.136;5.420;2022-09-23T01:06:22;6.68;;;4.00;;
72060;SDS011;59925;52.136;5.420;2022-09-23T01:08:48;7.30;;;3.55;;
72060;SDS011;59925;52.136;5.420;2022-09-23T01:14:18;4.95;;;3.60;;
72060;SDS011;59925;52.136;5.420;2022-09-23T01:17:42;5.10;;;3.63;;
72060;SDS011;59925;52.136;5.420;2022-09-23T01:22:57;5.47;;;3.40;;
72060;SDS011;59925;52.136;5.420;2022-09-23T01:31:23;4.63;;;3.13;;
72060;SDS011;59925;52.136;5.420;2022-09-23T01:36:50;9.50;;;4.05;;
72060;SDS011;59925;52.136;5.420;2022-09-23T01:39:29;4.20;;;3.45;;
72060;SDS011;59925;52.136;5.420;2022-09-23T01:42:06;6.25;;;3.63;;
72060;SDS011;59925;52.136;5.420;2022-09-23T01:45:04;5.77;;;3.47;;
72060;SDS011;59925;52.136;5.420;2022-09-23T01:47:41;6.85;;;3.38;;
72060;SDS011;59925;52.136;5.420;2022-09-23T01:50:18;5.93;;;3.67;;
72060;SDS011;59925;52.136;5.420;2022-09-23T01:53:09;9.00;;;3.95;;
72060;SDS011;59925;52.136;5.420;2022-09-23T01:55:40;7.03;;;4.10;;
72060;SDS011;59925;52.136;5.420;2022-09-23T01:58:19;7.03;;;3.60;;
72060;SDS011;59925;52.136;5.420;2022-09-23T02:00:53;4.90;;;3.90;;
72060;SDS011;59925;52.136;5.420;2022-09-23T02:03:28;5.60;;;3.50;;
72060;SDS011;59925;52.136;5.420;2022-09-23T02:06:03;7.25;;;3.38;;
72060;SDS011;59925;52.136;5.420;2022-09-23T02:09:38;5.45;;;3.17;;
72060;SDS011;59925;52.136;5.420;2022-09-23T02:11:39;5.17;;;3.50;;
72060;SDS011;59925;52.136;5.420;2022-09-23T02:14:10;7.05;;;3.50;;
72060;SDS011;59925;52.136;5.420;2022-09-23T02:16:45;4.38;;;3.28;;
72060;SDS011;59925;52.136;5.420;2022-09-23T02:19:20;6.45;;;3.00;;
72060;SDS011;59925;52.136;5.420;2022-09-23T02:21:53;4.78;;;3.00;;
72060;SDS011;59925;52.136;5.420;2022-09-23T02:24:32;4.47;;;3.10;;
72060;SDS011;59925;52.136;5.420;2022-09-23T02:27:11;3.92;;;3.03;;
72060;SDS011;59925;52.136;5.420;2022-09-23T02:30:10;5.75;;;3.53;;
72060;SDS011;59925;52.136;5.420;2022-09-23T02:32:53;4.93;;;3.50;;
72060;SDS011;59925;52.136;5.420;2022-09-23T02:40:45;5.43;;;3.40;;
72060;SDS011;59925;52.136;5.420;2022-09-23T02:45:57;6.40;;;3.33;;
72060;SDS011;59925;52.136;5.420;2022-09-23T02:48:43;4.45;;;3.20;;
72060;SDS011;59925;52.136;5.420;2022-09-23T02:51:14;5.40;;;3.10;;
72060;SDS011;59925;52.136;5.420;2022-09-23T02:53:40;4.35;;;3.15;;
72060;SDS011;59925;52.136;5.420;2022-09-23T02:56:15;4.55;;;2.70;;
72060;SDS011;59925;52.136;5.420;2022-09-23T02:58:45;3.97;;;2.63;;
72060;SDS011;59925;52.136;5.420;2022-09-23T03:01:24;5.63;;;2.90;;
72060;SDS011;59925;52.136;5.420;2022-09-23T03:04:08;4.43;;;2.70;;
72060;SDS011;59925;52.136;5.420;2022-09-23T03:09:28;5.03;;;3.80;;
72060;SDS011;59925;52.136;5.420;2022-09-23T03:12:45;5.50;;;4.00;;
72060;SDS011;59925;52.136;5.420;2022-09-23T03:15:21;6.68;;;3.72;;
72060;SDS011;59925;52.136;5.420;2022-09-23T03:20:57;4.68;;;3.20;;
72060;SDS011;59925;52.136;5.420;2022-09-23T03:23:33;4.38;;;3.15;;
72060;SDS011;59925;52.136;5.420;2022-09-23T03:26:06;5.13;;;3.20;;
72060;SDS011;59925;52.136;5.420;2022-09-23T03:28:38;6.75;;;3.70;;
72060;SDS011;59925;52.136;5.420;2022-09-23T03:31:09;5.33;;;3.80;;
72060;SDS011;59925;52.136;5.420;2022-09-23T03:33:38;4.88;;;3.67;;
72060;SDS011;59925;52.136;5.420;2022-09-23T03:36:09;6.03;;;3.60;;
72060;SDS011;59925;52.136;5.420;2022-09-23T03:38:58;5.50;;;3.72;;
72060;SDS011;59925;52.136;5.420;2022-09-23T03:41:30;6.57;;;3.58;;
72060;SDS011;59925;52.136;5.420;2022-09-23T03:44:02;6.87;;;3.43;;
72060;SDS011;59925;52.136;5.420;2022-09-23T03:46:29;5.78;;;3.78;;
72060;SDS011;59925;52.136;5.420;2022-09-23T03:48:58;6.63;;;3.88;;
72060;SDS011;59925;52.136;5.420;2022-09-23T03:51:33;7.13;;;4.05;;
72060;SDS011;59925;52.136;5.420;2022-09-23T03:53:59;4.32;;;3.60;;
72060;SDS011;59925;52.136;5.420;2022-09-23T03:56:25;8.13;;;4.00;;
72060;SDS011;59925;52.136;5.420;2022-09-23T03:58:52;7.75;;;4.13;;
72060;SDS011;59925;52.136;5.420;2022-09-23T04:01:19;7.05;;;4.65;;
72060;SDS011;59925;52.136;5.420;2022-09-23T04:03:46;8.77;;;4.35;;
72060;SDS011;59925;52.136;5.420;2022-09-23T04:06:12;6.65;;;4.38;;
72060;SDS011;59925;52.136;5.420;2022-09-23T04:08:38;7.30;;;3.93;;
72060;SDS011;59925;52.136;5.420;2022-09-23T04:11:05;8.00;;;4.63;;
72060;SDS011;59925;52.136;5.420;2022-09-23T04:13:32;6.38;;;4.68;;
72060;SDS011;59925;52.136;5.420;2022-09-23T04:15:59;7.15;;;4.88;;
72060;SDS011;59925;52.136;5.420;2022-09-23T04:18:25;9.23;;;4.80;;
72060;SDS011;59925;52.136;5.420;2022-09-23T04:20:55;6.13;;;4.67;;
72060;SDS011;59925;52.136;5.420;2022-09-23T04:23:24;7.38;;;4.63;;
72060;SDS011;59925;52.136;5.420;2022-09-23T04:25:51;7.00;;;4.00;;
72060;SDS011;59925;52.136;5.420;2022-09-23T04:28:19;6.20;;;4.75;;
72060;SDS011;59925;52.136;5.420;2022-09-23T04:30:46;7.38;;;5.13;;
72060;SDS011;59925;52.136;5.420;2022-09-23T04:33:13;9.27;;;6.17;;
72060;SDS011;59925;52.136;5.420;2022-09-23T04:35:41;10.70;;;5.75;;
72060;SDS011;59925;52.136;5.420;2022-09-23T04:38:09;8.25;;;6.20;;
72060;SDS011;59925;52.136;5.420;2022-09-23T04:40:37;9.32;;;6.40;;
72060;SDS011;59925;52.136;5.420;2022-09-23T04:43:04;9.75;;;6.78;;
72060;SDS011;59925;52.136;5.420;2022-09-23T04:45:30;10.53;;;6.83;;
72060;SDS011;59925;52.136;5.420;2022-09-23T04:47:57;10.45;;;7.38;;
72060;SDS011;59925;52.136;5.420;2022-09-23T04:50:24;11.15;;;8.27;;
72060;SDS011;59925;52.136;5.420;2022-09-23T04:52:51;9.52;;;7.03;;
72060;SDS011;59925;52.136;5.420;2022-09-23T04:55:19;10.48;;;6.93;;
72060;SDS011;59925;52.136;5.420;2022-09-23T04:57:45;10.60;;;7.40;;
72060;SDS011;59925;52.136;5.420;2022-09-23T05:00:12;12.35;;;7.68;;
72060;SDS011;59925;52.136;5.420;2022-09-23T05:02:43;11.73;;;7.93;;
72060;SDS011;59925;52.136;5.420;2022-09-23T05:05:11;10.82;;;7.60;;
72060;SDS011;59925;52.136;5.420;2022-09-23T05:07:38;9.10;;;6.88;;
72060;SDS011;59925;52.136;5.420;2022-09-23T05:10:05;11.93;;;7.73;;
72060;SDS011;59925;52.136;5.420;2022-09-23T05:12:32;12.23;;;7.25;;
72060;SDS011;59925;52.136;5.420;2022-09-23T05:14:59;12.60;;;7.63;;
72060;SDS011;59925;52.136;5.420;2022-09-23T05:17:25;10.88;;;8.07;;
72060;SDS011;59925;52.136;5.420;2022-09-23T05:19:51;10.45;;;7.25;;
72060;SDS011;59925;52.136;5.420;2022-09-23T05:22:18;12.00;;;7.77;;
72060;SDS011;59925;52.136;5.420;2022-09-23T05:24:44;11.73;;;7.72;;
72060;SDS011;59925;52.136;5.420;2022-09-23T05:27:11;12.45;;;7.70;;
72060;SDS011;59925;52.136;5.420;2022-09-23T05:29:37;11.55;;;7.00;;
72060;SDS011;59925;52.136;5.420;2022-09-23T05:32:04;11.35;;;7.43;;
72060;SDS011;59925;52.136;5.420;2022-09-23T05:34:30;12.83;;;7.33;;
72060;SDS011;59925;52.136;5.420;2022-09-23T05:36:57;10.15;;;6.22;;
72060;SDS011;59925;52.136;5.420;2022-09-23T05:39:23;9.32;;;6.45;;
72060;SDS011;59925;52.136;5.420;2022-09-23T05:41:50;9.40;;;5.28;;
72060;SDS011;59925;52.136;5.420;2022-09-23T05:44:17;10.68;;;6.88;;
72060;SDS011;59925;52.136;5.420;2022-09-23T05:46:44;10.67;;;7.67;;
72060;SDS011;59925;52.136;5.420;2022-09-23T05:49:10;12.88;;;7.90;;
72060;SDS011;59925;52.136;5.420;2022-09-23T05:51:37;12.15;;;8.55;;
72060;SDS011;59925;52.136;5.420;2022-09-23T05:54:03;13.57;;;8.35;;
72060;SDS011;59925;52.136;5.420;2022-09-23T05:56:31;12.25;;;7.68;;
72060;SDS011;59925;52.136;5.420;2022-09-23T05:58:59;12.43;;;7.73;;
72060;SDS011;59925;52.136;5.420;2022-09-23T06:01:27;12.25;;;8.13;;
72060;SDS011;59925;52.136;5.420;2022-09-23T06:03:57;14.00;;;8.05;;
72060;SDS011;59925;52.136;5.420;2022-09-23T06:06:29;11.70;;;7.80;;
72060;SDS011;59925;52.136;5.420;2022-09-23T06:08:57;11.20;;;7.88;;
72060;SDS011;59925;52.136;5.420;2022-09-23T06:11:24;15.30;;;8.80;;
72060;SDS011;59925;52.136;5.420;2022-09-23T06:13:54;10.80;;;7.63;;
72060;SDS011;59925;52.136;5.420;2022-09-23T06:16:26;11.48;;;8.00;;
72060;SDS011;59925;52.136;5.420;2022-09-23T06:18:53;11.38;;;7.28;;
72060;SDS011;59925;52.136;5.420;2022-09-23T06:21:20;13.52;;;8.52;;
72060;SDS011;59925;52.136;5.420;2022-09-23T06:23:46;11.10;;;7.70;;
72060;SDS011;59925;52.136;5.420;2022-09-23T06:26:13;13.38;;;7.78;;
72060;SDS011;59925;52.136;5.420;2022-09-23T06:28:41;14.15;;;8.75;;
72060;SDS011;59925;52.136;5.420;2022-09-23T06:31:10;13.18;;;8.63;;
72060;SDS011;59925;52.136;5.420;2022-09-23T06:33:41;13.38;;;8.80;;
72060;SDS011;59925;52.136;5.420;2022-09-23T06:36:10;16.47;;;8.80;;
72060;SDS011;59925;52.136;5.420;2022-09-23T06:38:41;13.82;;;9.10;;
72060;SDS011;59925;52.136;5.420;2022-09-23T06:41:13;13.15;;;8.35;;
72060;SDS011;59925;52.136;5.420;2022-09-23T06:43:41;14.70;;;9.55;;
72060;SDS011;59925;52.136;5.420;2022-09-23T06:46:07;11.75;;;8.55;;
72060;SDS011;59925;52.136;5.420;2022-09-23T06:48:34;15.23;;;8.90;;
72060;SDS011;59925;52.136;5.420;2022-09-23T06:51:01;14.55;;;9.00;;
72060;SDS011;59925;52.136;5.420;2022-09-23T06:53:30;13.90;;;8.77;;
72060;SDS011;59925;52.136;5.420;2022-09-23T06:56:00;14.77;;;9.80;;
72060;SDS011;59925;52.136;5.420;2022-09-23T06:58:29;13.88;;;9.25;;
72060;SDS011;59925;52.136;5.420;2022-09-23T07:01:04;13.57;;;8.80;;
72060;SDS011;59925;52.136;5.420;2022-09-23T07:03:32;15.38;;;9.05;;
72060;SDS011;59925;52.136;5.420;2022-09-23T07:05:59;13.80;;;9.10;;
72060;SDS011;59925;52.136;5.420;2022-09-23T07:08:27;20.00;;;9.93;;
72060;SDS011;59925;52.136;5.420;2022-09-23T07:10:55;12.55;;;9.50;;
72060;SDS011;59925;52.136;5.420;2022-09-23T07:13:23;15.70;;;9.87;;
72060;SDS011;59925;52.136;5.420;2022-09-23T07:18:21;14.48;;;9.68;;
72060;SDS011;59925;52.136;5.420;2022-09-23T07:20:51;15.73;;;9.77;;
72060;SDS011;59925;52.136;5.420;2022-09-23T07:23:18;16.98;;;9.32;;
72060;SDS011;59925;52.136;5.420;2022-09-23T07:25:45;13.37;;;10.00;;
72060;SDS011;59925;52.136;5.420;2022-09-23T07:28:15;15.85;;;9.73;;
72060;SDS011;59925;52.136;5.420;2022-09-23T07:30:41;15.30;;;10.25;;
72060;SDS011;59925;52.136;5.420;2022-09-23T07:33:23;13.60;;;9.65;;
72060;SDS011;59925;52.136;5.420;2022-09-23T07:35:57;15.25;;;10.20;;
72060;SDS011;59925;52.136;5.420;2022-09-23T07:38:24;19.17;;;9.77;;
72060;SDS011;59925;52.136;5.420;2022-09-23T07:41:03;16.50;;;9.98;;
72060;SDS011;59925;52.136;5.420;2022-09-23T07:43:32;13.75;;;9.52;;
72060;SDS011;59925;52.136;5.420;2022-09-23T07:45:59;11.80;;;8.95;;
72060;SDS011;59925;52.136;5.420;2022-09-23T07:48:28;13.35;;;9.93;;
72060;SDS011;59925;52.136;5.420;2022-09-23T07:50:59;13.33;;;9.60;;
72060;SDS011;59925;52.136;5.420;2022-09-23T07:53:30;15.70;;;10.02;;
72060;SDS011;59925;52.136;5.420;2022-09-23T07:55:57;13.18;;;9.85;;
72060;SDS011;59925;52.136;5.420;2022-09-23T07:58:24;13.88;;;9.88;;
72060;SDS011;59925;52.136;5.420;2022-09-23T08:00:51;15.38;;;9.90;;
72060;SDS011;59925;52.136;5.420;2022-09-23T08:03:18;12.30;;;9.30;;
72060;SDS011;59925;52.136;5.420;2022-09-23T08:05:45;13.25;;;8.95;;
72060;SDS011;59925;52.136;5.420;2022-09-23T08:08:11;12.85;;;8.70;;
72060;SDS011;59925;52.136;5.420;2022-09-23T08:10:39;13.88;;;9.65;;
72060;SDS011;59925;52.136;5.420;2022-09-23T08:13:05;13.30;;;9.18;;
72060;SDS011;59925;52.136;5.420;2022-09-23T08:15:31;12.07;;;9.00;;
72060;SDS011;59925;52.136;5.420;2022-09-23T08:17:58;11.68;;;8.88;;
72060;SDS011;59925;52.136;5.420;2022-09-23T08:20:26;12.05;;;8.60;;
72060;SDS011;59925;52.136;5.420;2022-09-23T08:23:13;12.23;;;8.73;;
72060;SDS011;59925;52.136;5.420;2022-09-23T08:25:41;14.18;;;9.02;;
72060;SDS011;59925;52.136;5.420;2022-09-23T08:28:12;13.90;;;8.40;;
72060;SDS011;59925;52.136;5.420;2022-09-23T08:30:45;12.57;;;8.13;;
72060;SDS011;59925;52.136;5.420;2022-09-23T08:33:14;11.85;;;7.88;;
72060;SDS011;59925;52.136;5.420;2022-09-23T08:35:47;12.57;;;8.73;;
72060;SDS011;59925;52.136;5.420;2022-09-23T08:38:14;9.65;;;7.93;;
72060;SDS011;59925;52.136;5.420;2022-09-23T08:40:44;14.00;;;8.10;;
72060;SDS011;59925;52.136;5.420;2022-09-23T08:43:24;9.85;;;7.93;;
72060;SDS011;59925;52.136;5.420;2022-09-23T08:45:52;14.18;;;7.80;;
72060;SDS011;59925;52.136;5.420;2022-09-23T08:48:29;8.88;;;7.32;;
72060;SDS011;59925;52.136;5.420;2022-09-23T08:51:05;12.48;;;7.53;;
72060;SDS011;59925;52.136;5.420;2022-09-23T08:53:38;10.70;;;7.53;;
72060;SDS011;59925;52.136;5.420;2022-09-23T08:56:06;12.02;;;7.32;;
72060;SDS011;59925;52.136;5.420;2022-09-23T08:58:48;10.13;;;6.95;;
72060;SDS011;59925;52.136;5.420;2022-09-23T09:10:05;10.07;;;6.75;;
72060;SDS011;59925;52.136;5.420;2022-09-23T09:15:20;10.18;;;6.80;;
72060;SDS011;59925;52.136;5.420;2022-09-23T09:22:57;12.55;;;7.00;;
72060;SDS011;59925;52.136;5.420;2022-09-23T09:25:41;11.45;;;6.00;;
72060;SDS011;59925;52.136;5.420;2022-09-23T09:28:16;9.98;;;6.53;;
72060;SDS011;59925;52.136;5.420;2022-09-23T09:30:56;28.00;;;6.90;;
72060;SDS011;59925;52.136;5.420;2022-09-23T09:33:27;11.17;;;6.37;;
72060;SDS011;59925;52.136;5.420;2022-09-23T09:38:50;16.02;;;6.63;;
72060;SDS011;59925;52.136;5.420;2022-09-23T09:41:18;6.88;;;5.38;;
72060;SDS011;59925;52.136;5.420;2022-09-23T09:43:46;8.40;;;5.90;;
72060;SDS011;59925;52.136;5.420;2022-09-23T09:52:10;9.73;;;6.20;;
72060;SDS011;59925;52.136;5.420;2022-09-23T09:55:40;9.93;;;5.95;;
72060;SDS011;59925;52.136;5.420;2022-09-23T09:58:01;8.50;;;6.03;;
72060;SDS011;59925;52.136;5.420;2022-09-23T10:00:34;9.30;;;6.00;;
72060;SDS011;59925;52.136;5.420;2022-09-23T10:03:24;8.63;;;6.07;;
72060;SDS011;59925;52.136;5.420;2022-09-23T10:05:58;7.15;;;5.72;;
72060;SDS011;59925;52.136;5.420;2022-09-23T10:08:29;8.95;;;6.13;;
72060;SDS011;59925;52.136;5.420;2022-09-23T10:13:40;10.47;;;5.30;;
72060;SDS011;59925;52.136;5.420;2022-09-23T10:16:07;9.57;;;5.13;;
72060;SDS011;59925;52.136;5.420;2022-09-23T10:18:39;6.97;;;5.18;;
72060;SDS011;59925;52.136;5.420;2022-09-23T10:21:16;8.23;;;5.32;;
72060;SDS011;59925;52.136;5.420;2022-09-23T10:23:53;11.48;;;5.53;;
72060;SDS011;59925;52.136;5.420;2022-09-23T10:26:40;7.57;;;5.30;;
72060;SDS011;59925;52.136;5.420;2022-09-23T10:32:18;10.40;;;5.55;;
72060;SDS011;59925;52.136;5.420;2022-09-23T10:45:55;5.85;;;4.15;;
72060;SDS011;59925;52.136;5.420;2022-09-23T10:54:46;9.30;;;4.53;;
72060;SDS011;59925;52.136;5.420;2022-09-23T11:00:28;7.80;;;4.78;;
72060;SDS011;59925;52.136;5.420;2022-09-23T11:03:13;13.45;;;4.90;;
72060;SDS011;59925;52.136;5.420;2022-09-23T11:20:18;7.00;;;5.07;;
72060;SDS011;59925;52.136;5.420;2022-09-23T11:23:02;9.00;;;4.90;;
72060;SDS011;59925;52.136;5.420;2022-09-23T11:25:42;9.77;;;5.28;;
72060;SDS011;59925;52.136;5.420;2022-09-23T11:28:29;6.95;;;4.82;;
72060;SDS011;59925;52.136;5.420;2022-09-23T11:36:57;8.63;;;5.03;;
72060;SDS011;59925;52.136;5.420;2022-09-23T11:39:42;9.82;;;5.55;;
72060;SDS011;59925;52.136;5.420;2022-09-23T11:42:20;9.98;;;5.68;;
72060;SDS011;59925;52.136;5.420;2022-09-23T11:44:54;10.77;;;6.13;;
72060;SDS011;59925;52.136;5.420;2022-09-23T11:47:27;8.95;;;6.00;;
72060;SDS011;59925;52.136;5.420;2022-09-23T11:49:58;10.53;;;5.23;;
72060;SDS011;59925;52.136;5.420;2022-09-23T11:52:42;7.82;;;5.10;;
72060;SDS011;59925;52.136;5.420;2022-09-23T11:57:48;8.45;;;4.63;;
72060;SDS011;59925;52.136;5.420;2022-09-23T12:00:22;6.55;;;4.57;;
72060;SDS011;59925;52.136;5.420;2022-09-23T12:05:32;8.48;;;4.35;;
72060;SDS011;59925;52.136;5.420;2022-09-23T12:08:06;6.47;;;4.35;;
72060;SDS011;59925;52.136;5.420;2022-09-23T12:10:43;5.68;;;4.10;;
72060;SDS011;59925;52.136;5.420;2022-09-23T12:24:17;8.43;;;4.13;;
72060;SDS011;59925;52.136;5.420;2022-09-23T12:26:53;5.90;;;3.88;;
72060;SDS011;59925;52.136;5.420;2022-09-23T12:29:24;6.60;;;3.50;;
72060;SDS011;59925;52.136;5.420;2022-09-23T12:31:59;7.55;;;3.53;;
72060;SDS011;59925;52.136;5.420;2022-09-23T12:34:31;4.68;;;3.15;;
72060;SDS011;59925;52.136;5.420;2022-09-23T12:37:13;8.32;;;3.30;;
72060;SDS011;59925;52.136;5.420;2022-09-23T12:39:49;6.75;;;3.20;;
72060;SDS011;59925;52.136;5.420;2022-09-23T12:42:16;4.60;;;2.90;;
72060;SDS011;59925;52.136;5.420;2022-09-23T12:44:46;7.93;;;2.90;;
72060;SDS011;59925;52.136;5.420;2022-09-23T12:49:40;4.88;;;2.90;;
72060;SDS011;59925;52.136;5.420;2022-09-23T12:52:12;5.13;;;2.83;;
72060;SDS011;59925;52.136;5.420;2022-09-23T12:54:43;5.67;;;2.70;;
72060;SDS011;59925;52.136;5.420;2022-09-23T12:59:59;4.40;;;2.78;;
72060;SDS011;59925;52.136;5.420;2022-09-23T13:05:46;4.13;;;2.78;;
72060;SDS011;59925;52.136;5.420;2022-09-23T13:08:35;12.33;;;2.90;;
72060;SDS011;59925;52.136;5.420;2022-09-23T13:11:05;4.57;;;2.50;;
72060;SDS011;59925;52.136;5.420;2022-09-23T13:13:42;7.85;;;2.80;;
72060;SDS011;59925;52.136;5.420;2022-09-23T13:18:59;6.55;;;2.90;;
72060;SDS011;59925;52.136;5.420;2022-09-23T13:26:38;5.88;;;3.25;;
72060;SDS011;59925;52.136;5.420;2022-09-23T13:29:12;5.43;;;2.88;;
72060;SDS011;59925;52.136;5.420;2022-09-23T13:31:44;4.15;;;3.10;;
72060;SDS011;59925;52.136;5.420;2022-09-23T13:34:12;7.67;;;3.50;;
72060;SDS011;59925;52.136;5.420;2022-09-23T13:36:42;6.38;;;3.15;;
72060;SDS011;59925;52.136;5.420;2022-09-23T13:39:13;5.90;;;3.20;;
72060;SDS011;59925;52.136;5.420;2022-09-23T13:41:51;5.78;;;3.70;;
72060;SDS011;59925;52.136;5.420;2022-09-23T13:44:20;7.85;;;3.58;;
72060;SDS011;59925;52.136;5.420;2022-09-23T13:46:48;5.60;;;3.33;;
72060;SDS011;59925;52.136;5.420;2022-09-23T13:49:20;12.57;;;2.97;;
72060;SDS011;59925;52.136;5.420;2022-09-23T13:51:50;6.60;;;3.47;;
72060;SDS011;59925;52.136;5.420;2022-09-23T13:57:24;5.43;;;3.38;;
72060;SDS011;59925;52.136;5.420;2022-09-23T14:02:43;5.80;;;3.35;;
72060;SDS011;59925;52.136;5.420;2022-09-23T14:05:12;5.32;;;3.30;;
72060;SDS011;59925;52.136;5.420;2022-09-23T14:07:47;7.05;;;3.50;;
72060;SDS011;59925;52.136;5.420;2022-09-23T14:10:18;8.38;;;2.97;;
72060;SDS011;59925;52.136;5.420;2022-09-23T14:12:48;5.47;;;3.60;;
72060;SDS011;59925;52.136;5.420;2022-09-23T14:15:16;7.85;;;3.53;;
72060;SDS011;59925;52.136;5.420;2022-09-23T14:17:45;5.13;;;3.47;;
72060;SDS011;59925;52.136;5.420;2022-09-23T14:20:19;5.82;;;3.13;;
72060;SDS011;59925;52.136;5.420;2022-09-23T14:22:46;6.05;;;3.28;;
72060;SDS011;59925;52.136;5.420;2022-09-23T14:25:13;5.87;;;3.37;;
72060;SDS011;59925;52.136;5.420;2022-09-23T14:27:42;4.25;;;3.13;;
72060;SDS011;59925;52.136;5.420;2022-09-23T14:30:13;9.88;;;3.80;;
72060;SDS011;59925;52.136;5.420;2022-09-23T14:32:43;8.05;;;3.30;;
72060;SDS011;59925;52.136;5.420;2022-09-23T14:37:48;6.50;;;3.07;;
72060;SDS011;59925;52.136;5.420;2022-09-23T14:40:37;4.97;;;2.58;;
72060;SDS011;59925;52.136;5.420;2022-09-23T14:43:21;6.03;;;3.20;;
72060;SDS011;59925;52.136;5.420;2022-09-23T14:45:51;18.33;;;3.20;;
72060;SDS011;59925;52.136;5.420;2022-09-23T14:48:24;5.90;;;3.13;;
72060;SDS011;59925;52.136;5.420;2022-09-23T14:50:53;5.03;;;3.27;;
72060;SDS011;59925;52.136;5.420;2022-09-23T14:58:44;7.85;;;5.00;;
72060;SDS011;59925;52.136;5.420;2022-09-23T15:11:58;10.70;;;5.38;;
72060;SDS011;59925;52.136;5.420;2022-09-23T15:14:28;10.00;;;5.90;;
72060;SDS011;59925;52.136;5.420;2022-09-23T15:17:05;7.73;;;4.87;;
72060;SDS011;59925;52.136;5.420;2022-09-23T15:19:42;10.38;;;4.90;;
72060;SDS011;59925;52.136;5.420;2022-09-23T15:22:09;8.25;;;5.40;;
72060;SDS011;59925;52.136;5.420;2022-09-23T15:24:40;10.10;;;5.07;;
72060;SDS011;59925;52.136;5.420;2022-09-23T15:27:09;9.70;;;6.00;;
72060;SDS011;59925;52.136;5.420;2022-09-23T15:30:10;8.40;;;6.20;;
72060;SDS011;59925;52.136;5.420;2022-09-23T15:32:41;7.60;;;5.55;;
72060;SDS011;59925;52.136;5.420;2022-09-23T15:35:12;8.85;;;5.15;;
72060;SDS011;59925;52.136;5.420;2022-09-23T15:37:50;9.75;;;5.40;;
72060;SDS011;59925;52.136;5.420;2022-09-23T15:40:24;8.13;;;6.07;;
72060;SDS011;59925;52.136;5.420;2022-09-23T15:42:53;10.63;;;5.93;;
72060;SDS011;59925;52.136;5.420;2022-09-23T15:45:35;9.40;;;6.15;;
72060;SDS011;59925;52.136;5.420;2022-09-23T15:48:06;9.18;;;5.65;;
72060;SDS011;59925;52.136;5.420;2022-09-23T15:50:36;11.60;;;5.53;;
72060;SDS011;59925;52.136;5.420;2022-09-23T15:53:05;10.10;;;5.97;;
72060;SDS011;59925;52.136;5.420;2022-09-23T15:55:32;10.70;;;5.53;;
72060;SDS011;59925;52.136;5.420;2022-09-23T15:57:58;12.50;;;6.20;;
72060;SDS011;59925;52.136;5.420;2022-09-23T16:00:25;7.97;;;5.25;;
72060;SDS011;59925;52.136;5.420;2022-09-23T16:02:52;7.82;;;5.57;;
72060;SDS011;59925;52.136;5.420;2022-09-23T16:05:26;9.18;;;6.32;;
72060;SDS011;59925;52.136;5.420;2022-09-23T16:07:58;13.93;;;7.30;;
72060;SDS011;59925;52.136;5.420;2022-09-23T16:10:31;11.40;;;6.20;;
72060;SDS011;59925;52.136;5.420;2022-09-23T16:12:59;10.52;;;5.80;;
72060;SDS011;59925;52.136;5.420;2022-09-23T16:15:28;11.00;;;6.00;;
72060;SDS011;59925;52.136;5.420;2022-09-23T16:17:56;9.18;;;5.60;;
72060;SDS011;59925;52.136;5.420;2022-09-23T16:20:24;9.77;;;6.37;;
72060;SDS011;59925;52.136;5.420;2022-09-23T16:23:00;12.05;;;6.55;;
72060;SDS011;59925;52.136;5.420;2022-09-23T16:25:29;10.10;;;6.78;;
72060;SDS011;59925;52.136;5.420;2022-09-23T16:28:02;15.40;;;6.35;;
72060;SDS011;59925;52.136;5.420;2022-09-23T16:30:30;8.10;;;6.32;;
72060;SDS011;59925;52.136;5.420;2022-09-23T16:32:58;10.67;;;6.50;;
72060;SDS011;59925;52.136;5.420;2022-09-23T16:35:26;8.77;;;6.20;;
72060;SDS011;59925;52.136;5.420;2022-09-23T16:37:54;10.23;;;6.13;;
72060;SDS011;59925;52.136;5.420;2022-09-23T16:40:21;10.38;;;6.32;;
72060;SDS011;59925;52.136;5.420;2022-09-23T16:42:49;8.65;;;6.20;;
72060;SDS011;59925;52.136;5.420;2022-09-23T16:45:18;10.20;;;6.57;;
72060;SDS011;59925;52.136;5.420;2022-09-23T16:47:48;13.20;;;6.45;;
72060;SDS011;59925;52.136;5.420;2022-09-23T16:50:17;9.38;;;6.10;;
72060;SDS011;59925;52.136;5.420;2022-09-23T16:52:45;12.25;;;6.65;;
72060;SDS011;59925;52.136;5.420;2022-09-23T16:55:12;8.32;;;6.30;;
72060;SDS011;59925;52.136;5.420;2022-09-23T16:57:39;9.93;;;6.10;;
72060;SDS011;59925;52.136;5.420;2022-09-23T17:00:08;10.68;;;6.78;;
72060;SDS011;59925;52.136;5.420;2022-09-23T17:02:57;11.40;;;7.28;;
72060;SDS011;59925;52.136;5.420;2022-09-23T17:05:43;9.25;;;7.07;;
72060;SDS011;59925;52.136;5.420;2022-09-23T17:08:12;11.07;;;7.57;;
72060;SDS011;59925;52.136;5.420;2022-09-23T17:10:43;11.83;;;7.83;;
72060;SDS011;59925;52.136;5.420;2022-09-23T17:13:11;13.75;;;7.90;;
72060;SDS011;59925;52.136;5.420;2022-09-23T17:15:42;15.20;;;7.93;;
72060;SDS011;59925;52.136;5.420;2022-09-23T17:18:09;12.98;;;8.15;;
72060;SDS011;59925;52.136;5.420;2022-09-23T17:20:35;15.98;;;8.55;;
72060;SDS011;59925;52.136;5.420;2022-09-23T17:23:03;15.90;;;8.57;;
72060;SDS011;59925;52.136;5.420;2022-09-23T17:25:31;16.80;;;8.93;;
72060;SDS011;59925;52.136;5.420;2022-09-23T17:27:59;15.60;;;8.65;;
72060;SDS011;59925;52.136;5.420;2022-09-23T17:30:25;14.05;;;8.82;;
72060;SDS011;59925;52.136;5.420;2022-09-23T17:32:52;19.13;;;9.57;;
72060;SDS011;59925;52.136;5.420;2022-09-23T17:35:18;18.70;;;10.03;;
72060;SDS011;59925;52.136;5.420;2022-09-23T17:37:45;14.30;;;8.95;;
72060;SDS011;59925;52.136;5.420;2022-09-23T17:40:12;14.80;;;9.80;;
72060;SDS011;59925;52.136;5.420;2022-09-23T17:42:39;14.90;;;9.50;;
72060;SDS011;59925;52.136;5.420;2022-09-23T17:45:09;15.90;;;10.05;;
72060;SDS011;59925;52.136;5.420;2022-09-23T17:47:37;15.67;;;9.37;;
72060;SDS011;59925;52.136;5.420;2022-09-23T17:50:07;17.05;;;10.50;;